createdAt,value
2018-07-25T00:00:27.820Z,70.38
2018-07-25T00:02:54.515Z,70.17
2018-07-25T00:05:21.168Z,70.85
2018-07-25T00:07:47.722Z,70.66
2018-07-25T00:10:14.444Z,70.88
2018-07-25T00:12:41.081Z,70.76
2018-07-25T00:15:07.702Z,70.81
2018-07-25T00:17:34.391Z,71.59
2018-07-25T00:20:01.014Z,71.92
2018-07-25T00:22:27.688Z,71.59
2018-07-25T00:24:54.373Z,72.25
2018-07-25T00:27:21.069Z,71.87
2018-07-25T00:29:47.775Z,71.83
2018-07-25T00:32:14.420Z,72.69
2018-07-25T00:34:41.042Z,72.65
2018-07-25T00:37:07.728Z,72.15
2018-07-25T00:39:34.368Z,72.57
2018-07-25T00:42:01.070Z,72.59
2018-07-25T00:44:27.758Z,73.01
2018-07-25T00:46:54.444Z,72.85
2018-07-25T00:49:21.065Z,73.14
2018-07-25T00:51:47.666Z,74.00
2018-07-25T00:54:14.371Z,73.89
2018-07-25T00:56:41.096Z,73.48
2018-07-25T00:59:08.078Z,73.26
2018-07-25T01:01:34.832Z,73.82
2018-07-25T01:04:01.548Z,73.36
2018-07-25T01:06:28.197Z,73.81
2018-07-25T01:08:54.942Z,74.32
2018-07-25T01:11:21.591Z,74.52
2018-07-25T01:13:48.243Z,74.09
2018-07-25T01:16:14.913Z,73.77
2018-07-25T01:18:41.556Z,74.33
2018-07-25T01:21:08.249Z,74.23
2018-07-25T01:23:34.918Z,74.00
2018-07-25T01:26:01.553Z,74.14
2018-07-25T01:28:28.207Z,74.45
2018-07-25T01:30:54.875Z,73.98
2018-07-25T01:33:21.476Z,73.85
2018-07-25T01:35:48.228Z,73.81
2018-07-25T01:38:14.911Z,74.20
2018-07-25T01:40:41.742Z,75.12
2018-07-25T01:43:08.380Z,74.87
2018-07-25T01:45:34.991Z,74.51
2018-07-25T01:48:01.631Z,74.91
2018-07-25T01:50:28.269Z,74.91
2018-07-25T01:52:54.921Z,75.06
2018-07-25T01:55:21.590Z,74.65
2018-07-25T01:57:48.227Z,75.41
2018-07-25T02:00:15.147Z,75.51
2018-07-25T02:02:41.787Z,75.01
2018-07-25T02:05:08.374Z,75.37
2018-07-25T02:07:34.977Z,75.24
2018-07-25T02:12:33.423Z,75.51
2018-07-25T02:15:00.074Z,75.12
2018-07-25T02:17:26.737Z,75.59
2018-07-25T02:19:53.439Z,76.04
2018-07-25T02:22:20.128Z,76.40
2018-07-25T02:24:46.780Z,75.79
2018-07-25T02:27:13.465Z,76.09
2018-07-25T02:29:40.133Z,76.37
2018-07-25T02:32:06.825Z,76.42
2018-07-25T02:34:33.524Z,76.46
2018-07-25T02:37:00.232Z,76.85
2018-07-25T02:39:26.853Z,77.45
2018-07-25T02:41:53.558Z,77.63
2018-07-25T02:44:20.151Z,77.79
2018-07-25T02:46:46.849Z,76.96
2018-07-25T02:49:13.503Z,77.59
2018-07-25T02:51:40.200Z,77.48
2018-07-25T02:54:07.190Z,77.29
2018-07-25T02:56:33.801Z,77.47
2018-07-25T02:59:00.785Z,77.53
2018-07-25T03:01:27.433Z,77.41
2018-07-25T03:03:54.046Z,77.00
2018-07-25T03:06:20.722Z,76.96
2018-07-25T03:08:47.332Z,77.26
2018-07-25T03:11:13.968Z,77.50
2018-07-25T03:13:40.562Z,77.68
2018-07-25T03:16:08.139Z,77.59
2018-07-25T03:18:34.849Z,77.84
2018-07-25T03:21:01.682Z,77.67
2018-07-25T03:23:28.967Z,78.38
2018-07-25T03:25:55.812Z,78.47
2018-07-25T03:28:22.456Z,77.83
2018-07-25T03:30:49.174Z,78.12
2018-07-25T03:33:15.898Z,77.77
2018-07-25T03:35:42.501Z,78.02
2018-07-25T03:38:09.197Z,77.71
2018-07-25T03:40:35.873Z,77.65
2018-07-25T03:43:02.545Z,77.47
2018-07-25T03:45:29.147Z,77.80
2018-07-25T03:47:55.804Z,77.64
2018-07-25T03:50:22.495Z,78.08
2018-07-25T03:52:49.179Z,78.22
2018-07-25T03:55:15.833Z,78.05
2018-07-25T03:57:42.508Z,77.71
2018-07-25T04:00:09.204Z,77.76
2018-07-25T04:02:35.779Z,77.92
2018-07-25T04:05:02.433Z,78.20
2018-07-25T04:07:29.140Z,78.38
2018-07-25T04:09:55.804Z,78.53
2018-07-25T04:12:22.447Z,77.72
2018-07-25T04:14:50.382Z,76.75
2018-07-25T04:17:17.017Z,77.76
2018-07-25T04:19:43.609Z,77.86
2018-07-25T04:22:10.268Z,79.21
2018-07-25T04:24:36.900Z,79.08
2018-07-25T04:27:03.544Z,79.24
2018-07-25T04:29:30.222Z,79.87
2018-07-25T04:31:56.827Z,80.07
2018-07-25T04:34:23.441Z,80.21
2018-07-25T04:36:50.043Z,80.24
2018-07-25T04:39:16.854Z,79.68
2018-07-25T04:41:43.524Z,78.83
2018-07-25T04:44:10.326Z,79.84
2018-07-25T04:46:37.052Z,79.54
2018-07-25T04:49:03.769Z,79.79
2018-07-25T04:51:30.327Z,80.47
2018-07-25T04:53:56.983Z,80.41
2018-07-25T04:56:23.610Z,80.17
2018-07-25T04:58:50.753Z,78.97
2018-07-25T05:01:17.428Z,79.54
2018-07-25T05:03:44.109Z,78.97
2018-07-25T05:06:10.757Z,77.32
2018-07-25T05:08:37.381Z,77.07
2018-07-25T05:11:04.030Z,77.41
2018-07-25T05:13:30.697Z,76.65
2018-07-25T05:15:57.310Z,76.74
2018-07-25T05:18:23.922Z,76.88
2018-07-25T05:20:50.648Z,76.99
2018-07-25T05:23:17.314Z,76.77
2018-07-25T05:25:43.937Z,76.02
2018-07-25T05:28:10.567Z,76.18
2018-07-25T05:30:37.174Z,76.79
2018-07-25T05:33:03.917Z,77.84
2018-07-25T05:35:30.623Z,77.08
2018-07-25T05:37:57.160Z,76.97
2018-07-25T05:40:23.783Z,76.16
2018-07-25T05:42:50.419Z,74.77
2018-07-25T05:45:17.079Z,74.89
2018-07-25T05:47:43.686Z,75.34
2018-07-25T05:50:10.278Z,75.76
2018-07-25T05:52:36.872Z,74.96
2018-07-25T05:55:03.792Z,74.25
2018-07-25T05:57:30.400Z,74.21
2018-07-25T05:59:57.144Z,73.71
2018-07-25T06:02:23.758Z,72.63
2018-07-25T06:06:29.275Z,71.77
2018-07-25T06:08:55.966Z,70.06
2018-07-25T06:11:22.633Z,70.36
2018-07-25T06:16:11.637Z,68.90
2018-07-25T06:18:38.844Z,67.61
2018-07-25T06:21:06.022Z,67.72
2018-07-25T06:23:33.186Z,67.57
2018-07-25T06:26:00.422Z,66.09
2018-07-25T06:29:23.190Z,66.01
2018-07-25T06:32:39.704Z,65.38
2018-07-25T06:35:06.921Z,64.55
2018-07-25T06:37:34.149Z,64.25
2018-07-25T06:40:01.388Z,64.53
2018-07-25T06:42:28.633Z,65.30
2018-07-25T06:44:55.838Z,65.90
2018-07-25T06:47:22.998Z,65.78
2018-07-25T06:49:50.218Z,65.61
2018-07-25T06:52:17.537Z,66.03
2018-07-25T06:54:45.251Z,65.97
2018-07-25T06:57:12.603Z,66.81
2018-07-25T06:59:39.788Z,66.10
2018-07-25T07:02:07.097Z,66.18
2018-07-25T07:04:34.345Z,66.01
2018-07-25T07:07:01.648Z,65.52
2018-07-25T07:09:28.805Z,63.84
2018-07-25T07:11:56.036Z,63.74
2018-07-25T07:14:23.385Z,62.07
2018-07-25T07:16:50.700Z,61.19
2018-07-25T07:19:17.908Z,58.61
2018-07-25T07:21:45.063Z,58.14
2018-07-25T07:24:12.380Z,56.38
2018-07-25T07:26:39.549Z,54.05
2018-07-25T07:29:06.745Z,54.60
2018-07-25T07:31:34.058Z,53.46
2018-07-25T07:34:01.177Z,51.94
2018-07-25T07:36:28.422Z,52.62
2018-07-25T07:38:55.647Z,49.86
2018-07-25T07:41:22.833Z,48.76
2018-07-25T07:43:50.034Z,48.73
2018-07-25T07:46:17.272Z,49.76
2018-07-25T07:48:44.457Z,49.14
2018-07-25T07:51:11.726Z,46.79
2018-07-25T07:53:38.925Z,45.40
2018-07-25T07:56:06.201Z,45.13
2018-07-25T07:58:33.471Z,42.64
2018-07-25T08:01:00.669Z,42.87
2018-07-25T08:03:27.890Z,43.63
2018-07-25T08:05:55.201Z,42.73
2018-07-25T08:08:22.371Z,41.87
2018-07-25T08:10:49.668Z,41.67
2018-07-25T08:13:16.831Z,42.25
2018-07-25T08:15:44.056Z,40.97
2018-07-25T08:18:11.226Z,41.72
2018-07-25T08:20:38.454Z,39.99
2018-07-25T08:23:05.734Z,41.86
2018-07-25T08:25:33.278Z,41.71
2018-07-25T08:28:00.517Z,40.59
2018-07-25T08:30:27.797Z,38.37
2018-07-25T08:32:55.002Z,39.11
2018-07-25T08:35:22.220Z,39.71
2018-07-25T08:37:49.466Z,38.89
2018-07-25T08:40:16.647Z,39.48
2018-07-25T08:42:43.889Z,36.26
2018-07-25T08:45:11.088Z,37.68
2018-07-25T08:47:38.323Z,37.24
2018-07-25T08:50:06.761Z,37.02
2018-07-25T08:52:34.052Z,37.33
2018-07-25T08:55:01.220Z,38.31
2018-07-25T08:57:28.461Z,35.28
2018-07-25T08:59:55.671Z,36.18
2018-07-25T09:02:22.970Z,35.00
2018-07-25T09:04:50.193Z,33.77
2018-07-25T09:07:17.520Z,34.80
2018-07-25T09:09:44.908Z,35.02
2018-07-25T09:12:12.142Z,34.90
2018-07-25T09:14:39.427Z,33.29
2018-07-25T09:17:06.737Z,34.69
2018-07-25T09:19:33.975Z,35.56
2018-07-25T09:22:01.377Z,35.15
2018-07-25T09:24:28.617Z,33.88
2018-07-25T09:26:55.994Z,33.80
2018-07-25T09:29:23.211Z,34.88
2018-07-25T09:31:50.502Z,34.76
2018-07-25T09:34:17.707Z,34.02
2018-07-25T09:36:44.987Z,34.00
2018-07-25T09:39:12.279Z,32.46
2018-07-25T09:41:39.653Z,33.58
2018-07-25T09:44:06.918Z,31.48
2018-07-25T09:46:34.472Z,31.29
2018-07-25T09:49:01.743Z,30.94
2018-07-25T09:51:29.019Z,32.97
2018-07-25T09:53:56.307Z,31.28
2018-07-25T09:56:23.536Z,32.06
2018-07-25T09:58:50.961Z,33.12
2018-07-25T10:01:18.110Z,32.88
2018-07-25T10:03:45.392Z,32.84
2018-07-25T10:06:12.687Z,32.47
2018-07-25T10:08:39.992Z,31.54
2018-07-25T10:11:07.295Z,32.99
2018-07-25T10:13:34.492Z,31.65
2018-07-25T10:16:01.739Z,31.69
2018-07-25T10:18:28.911Z,32.22
2018-07-25T10:20:56.188Z,31.85
2018-07-25T10:23:23.366Z,31.32
2018-07-25T10:25:50.724Z,29.79
2018-07-25T10:28:17.940Z,30.31
2018-07-25T10:30:45.173Z,30.52
2018-07-25T10:33:12.374Z,29.93
2018-07-25T10:35:39.570Z,30.31
2018-07-25T10:38:06.818Z,30.63
2018-07-25T10:40:34.040Z,30.09
2018-07-25T10:43:01.304Z,29.20
2018-07-25T10:45:28.565Z,28.83
2018-07-25T10:47:55.828Z,27.64
2018-07-25T10:50:23.077Z,26.46
2018-07-25T10:52:50.302Z,28.09
2018-07-25T10:55:17.602Z,27.24
2018-07-25T10:57:44.833Z,28.89
2018-07-25T11:00:12.093Z,28.66
2018-07-25T11:02:39.299Z,28.17
2018-07-25T11:05:06.775Z,28.92
2018-07-25T11:07:34.010Z,29.92
2018-07-25T11:10:01.228Z,30.10
2018-07-25T11:12:28.524Z,30.04
2018-07-25T11:14:56.054Z,31.06
2018-07-25T11:17:23.230Z,31.81
2018-07-25T11:19:50.494Z,31.84
2018-07-25T11:22:17.870Z,30.22
2018-07-25T11:24:45.149Z,31.17
2018-07-25T11:27:12.493Z,31.68
2018-07-25T11:29:39.730Z,32.41
2018-07-25T11:32:07.021Z,31.39
2018-07-25T11:34:34.374Z,31.65
2018-07-25T11:37:01.587Z,31.43
2018-07-25T11:39:28.873Z,31.19
2018-07-25T11:41:56.150Z,30.96
2018-07-25T11:44:23.508Z,31.89
2018-07-25T11:46:51.010Z,31.67
2018-07-25T11:49:18.362Z,31.26
2018-07-25T11:51:45.714Z,31.13
2018-07-25T11:54:12.969Z,30.48
2018-07-25T11:56:40.207Z,30.87
2018-07-25T11:59:07.528Z,31.25
2018-07-25T12:01:34.820Z,30.50
2018-07-25T12:04:02.135Z,29.46
2018-07-25T12:06:29.550Z,28.64
2018-07-25T12:08:56.737Z,30.97
2018-07-25T12:11:24.045Z,27.84
2018-07-25T12:13:51.318Z,29.32
2018-07-25T12:16:18.656Z,28.62
2018-07-25T12:18:46.003Z,28.16
2018-07-25T12:21:13.404Z,26.42
2018-07-25T12:23:40.599Z,26.87
2018-07-25T12:26:08.021Z,25.55
2018-07-25T12:28:35.374Z,26.60
2018-07-25T12:31:02.742Z,27.43
2018-07-25T12:33:30.022Z,27.46
2018-07-25T12:35:57.347Z,27.90
2018-07-25T12:38:24.681Z,27.82
2018-07-25T12:40:52.185Z,26.69
2018-07-25T12:43:19.511Z,26.63
2018-07-25T12:45:46.886Z,26.70
2018-07-25T12:48:14.245Z,26.46
2018-07-25T12:50:41.542Z,27.32
2018-07-25T12:53:08.784Z,28.23
2018-07-25T12:55:36.100Z,27.09
2018-07-25T12:58:03.516Z,28.15
2018-07-25T13:00:30.756Z,27.00
2018-07-25T13:02:58.106Z,26.86
2018-07-25T13:05:25.428Z,26.66
2018-07-25T13:07:52.862Z,25.16
2018-07-25T13:10:20.134Z,24.37
2018-07-25T13:12:47.493Z,25.02
2018-07-25T13:15:14.841Z,25.00
2018-07-25T13:17:42.130Z,24.24
2018-07-25T13:20:09.447Z,23.96
2018-07-25T13:22:36.743Z,23.99
2018-07-25T13:25:04.209Z,22.95
2018-07-25T13:27:31.524Z,24.12
2018-07-25T13:29:58.779Z,23.25
2018-07-25T13:32:26.223Z,23.21
2018-07-25T13:34:53.642Z,23.47
2018-07-25T13:37:21.073Z,23.80
2018-07-25T13:39:48.396Z,23.34
2018-07-25T13:42:15.593Z,23.21
2018-07-25T13:44:42.992Z,22.91
2018-07-25T13:47:10.349Z,23.05
2018-07-25T13:49:37.687Z,23.24
2018-07-25T13:52:05.019Z,24.41
2018-07-25T13:54:32.323Z,24.12
2018-07-25T13:56:59.665Z,23.58
2018-07-25T13:59:26.995Z,22.82
2018-07-25T14:01:54.519Z,22.13
2018-07-25T14:04:21.915Z,22.66
2018-07-25T14:06:49.259Z,21.72
2018-07-25T14:09:16.629Z,21.38
2018-07-25T14:11:44.054Z,20.56
2018-07-25T14:14:11.475Z,21.85
2018-07-25T14:16:39.044Z,21.89
2018-07-25T14:19:06.712Z,23.09
2018-07-25T14:21:34.052Z,22.90
2018-07-25T14:24:01.727Z,23.46
2018-07-25T14:26:28.864Z,22.70
2018-07-25T14:28:56.211Z,23.68
2018-07-25T14:31:23.351Z,21.86
2018-07-25T14:33:50.575Z,21.27
2018-07-25T14:36:17.773Z,21.65
2018-07-25T14:38:45.053Z,21.55
2018-07-25T14:41:12.333Z,21.21
2018-07-25T14:43:39.688Z,21.71
2018-07-25T14:46:07.239Z,21.75
2018-07-25T14:48:34.487Z,22.28
2018-07-25T14:51:01.871Z,22.31
2018-07-25T14:53:29.194Z,22.52
2018-07-25T14:55:56.438Z,23.27
2018-07-25T14:58:23.772Z,24.82
2018-07-25T15:00:50.949Z,25.21
2018-07-25T15:03:18.303Z,25.61
2018-07-25T15:05:45.577Z,25.78
2018-07-25T15:08:12.774Z,25.55
2018-07-25T15:10:40.032Z,24.79
2018-07-25T15:13:07.282Z,24.18
2018-07-25T15:15:34.540Z,24.91
2018-07-25T15:18:01.835Z,24.12
2018-07-25T15:20:29.164Z,24.49
2018-07-25T15:22:56.509Z,24.52
2018-07-25T15:25:23.792Z,24.89
2018-07-25T15:27:51.235Z,24.54
2018-07-25T15:30:18.526Z,23.44
2018-07-25T15:32:45.845Z,25.87
2018-07-25T15:35:13.164Z,26.57
2018-07-25T15:37:40.533Z,30.26
2018-07-25T15:40:08.061Z,29.29
2018-07-25T15:42:35.298Z,30.12
2018-07-25T15:45:02.707Z,30.08
2018-07-25T15:47:30.024Z,30.18
2018-07-25T15:49:57.280Z,30.98
2018-07-25T15:52:24.670Z,31.82
2018-07-25T15:54:52.085Z,30.69
2018-07-25T15:57:19.394Z,31.44
2018-07-25T15:59:46.687Z,30.11
2018-07-25T16:02:13.946Z,28.98
2018-07-25T16:04:41.196Z,30.24
2018-07-25T16:07:08.615Z,29.70
2018-07-25T16:09:35.863Z,26.58
2018-07-25T16:12:03.202Z,27.07
2018-07-25T16:14:30.482Z,25.87
2018-07-25T16:16:57.765Z,28.12
2018-07-25T16:19:25.062Z,27.67
2018-07-25T16:21:52.338Z,27.59
2018-07-25T16:24:19.609Z,27.92
2018-07-25T16:26:46.924Z,26.72
2018-07-25T16:29:14.143Z,29.28
2018-07-25T16:31:41.402Z,28.35
2018-07-25T16:34:08.619Z,27.19
2018-07-25T16:36:35.840Z,26.56
2018-07-25T16:39:05.287Z,26.76
2018-07-25T16:41:32.513Z,27.82
2018-07-25T16:43:59.831Z,27.14
2018-07-25T16:46:27.152Z,26.11
2018-07-25T16:48:54.456Z,26.50
2018-07-25T16:51:21.726Z,28.59
2018-07-25T16:53:48.907Z,28.36
2018-07-25T16:56:16.216Z,27.36
2018-07-25T16:58:43.588Z,28.37
2018-07-25T17:01:10.916Z,27.53
2018-07-25T17:03:38.167Z,28.14
2018-07-25T17:06:05.492Z,28.57
2018-07-25T17:08:32.789Z,28.94
2018-07-25T17:11:00.081Z,26.60
2018-07-25T17:13:27.322Z,28.61
2018-07-25T17:15:54.584Z,27.35
2018-07-25T17:18:22.089Z,29.86
2018-07-25T17:20:50.922Z,31.40
2018-07-25T17:23:18.194Z,30.14
2018-07-25T17:25:45.611Z,30.49
2018-07-25T17:28:12.897Z,31.04
2018-07-25T17:30:40.186Z,31.40
2018-07-25T17:33:07.356Z,31.58
2018-07-25T17:35:34.717Z,31.97
2018-07-25T17:38:01.930Z,32.56
2018-07-25T17:40:29.269Z,32.06
2018-07-25T17:42:56.553Z,31.67
2018-07-25T17:45:23.825Z,32.44
2018-07-25T17:47:51.120Z,31.97
2018-07-25T17:50:18.400Z,32.71
2018-07-25T17:52:45.742Z,34.12
2018-07-25T17:55:12.964Z,32.82
2018-07-25T17:57:40.203Z,33.19
2018-07-25T18:00:08.969Z,33.18
2018-07-25T18:02:36.161Z,33.49
2018-07-25T18:05:03.489Z,34.69
2018-07-25T18:07:30.748Z,35.11
2018-07-25T18:09:58.011Z,34.86
2018-07-25T18:12:25.264Z,34.82
2018-07-25T18:14:52.691Z,35.25
2018-07-25T18:17:20.024Z,35.75
2018-07-25T18:19:55.795Z,36.32
2018-07-25T18:22:23.056Z,35.00
2018-07-25T18:24:51.064Z,36.11
2018-07-25T18:29:57.799Z,34.50
2018-07-25T18:32:25.077Z,36.02
2018-07-25T18:34:52.366Z,35.06
2018-07-25T18:37:19.634Z,35.37
2018-07-25T18:39:47.668Z,36.16
2018-07-25T18:42:16.610Z,37.19
2018-07-25T18:44:47.156Z,37.39
2018-07-25T18:47:16.280Z,36.87
2018-07-25T18:49:43.631Z,37.73
2018-07-25T18:52:10.922Z,37.98
2018-07-25T18:54:38.092Z,39.19
2018-07-25T18:57:05.396Z,38.38
2018-07-25T18:59:32.698Z,39.38
2018-07-25T19:01:59.919Z,39.30
2018-07-25T19:04:27.189Z,40.71
2018-07-25T19:06:54.394Z,40.21
2018-07-25T19:09:21.630Z,41.08
2018-07-25T19:11:48.869Z,40.99
2018-07-25T19:14:22.288Z,41.10
2018-07-25T19:16:49.506Z,41.49
2018-07-25T19:19:16.668Z,41.83
2018-07-25T19:21:43.904Z,41.64
2018-07-25T19:24:11.080Z,41.41
2018-07-25T19:26:38.320Z,41.78
2018-07-25T19:29:05.844Z,42.78
2018-07-25T19:31:33.093Z,42.44
2018-07-25T19:34:01.080Z,42.28
2018-07-25T19:36:28.270Z,43.32
2018-07-25T19:38:55.497Z,43.65
2018-07-25T19:41:22.862Z,43.23
2018-07-25T19:43:56.019Z,43.70
2018-07-25T19:46:24.233Z,43.65
2018-07-25T19:48:51.557Z,43.61
2018-07-25T19:51:18.832Z,44.25
2018-07-25T19:53:46.141Z,43.80
2018-07-25T19:56:13.539Z,44.13
2018-07-25T19:58:40.777Z,45.16
2018-07-25T20:01:08.044Z,44.44
2018-07-25T20:03:35.305Z,45.74
2018-07-25T20:06:02.548Z,44.19
2018-07-25T20:08:29.807Z,44.81
2018-07-25T20:10:57.038Z,46.41
2018-07-25T20:13:24.340Z,46.62
2018-07-25T20:15:58.058Z,46.70
2018-07-25T20:18:25.680Z,47.77
2018-07-25T20:20:53.163Z,48.24
2018-07-25T20:23:20.431Z,48.90
2018-07-25T20:25:47.722Z,48.04
2018-07-25T20:28:14.940Z,49.33
2018-07-25T20:30:42.257Z,48.02
2018-07-25T20:33:09.589Z,49.48
2018-07-25T20:35:36.876Z,49.35
2018-07-25T20:38:04.096Z,48.53
2018-07-25T20:40:31.309Z,49.31
2018-07-25T20:42:58.634Z,48.75
2018-07-25T20:45:25.936Z,48.94
2018-07-25T20:47:53.203Z,49.87
2018-07-25T20:50:20.402Z,50.08
2018-07-25T20:52:47.697Z,50.64
2018-07-25T20:55:14.957Z,50.60
2018-07-25T20:57:42.228Z,50.50
2018-07-25T21:00:09.647Z,50.99
2018-07-25T21:02:36.900Z,50.49
2018-07-25T21:05:04.332Z,51.13
2018-07-25T21:07:31.664Z,50.74
2018-07-25T21:09:58.829Z,50.69
2018-07-25T21:12:26.023Z,50.77
2018-07-25T21:14:53.463Z,51.01
2018-07-25T21:17:20.705Z,50.90
2018-07-25T21:19:47.998Z,50.43
2018-07-25T21:22:15.347Z,51.20
2018-07-25T21:24:42.578Z,51.34
2018-07-25T21:27:09.880Z,51.06
2018-07-25T21:29:37.369Z,51.38
2018-07-25T21:32:04.614Z,50.68
2018-07-25T21:34:31.946Z,50.97
2018-07-25T21:36:59.270Z,50.81
2018-07-25T21:39:26.525Z,51.74
2018-07-25T21:41:53.765Z,51.77
2018-07-25T21:44:21.067Z,51.77
2018-07-25T21:46:48.334Z,52.15
2018-07-25T21:49:15.534Z,52.12
2018-07-25T21:51:42.797Z,52.09
2018-07-25T21:54:10.104Z,52.80
2018-07-25T21:56:37.322Z,53.19
2018-07-25T21:59:04.705Z,52.51
2018-07-25T22:01:32.077Z,52.96
2018-07-25T22:03:59.369Z,53.44
2018-07-25T22:06:26.584Z,54.35
2018-07-25T22:08:53.982Z,53.85
2018-07-25T22:11:21.283Z,54.00
2018-07-25T22:13:55.595Z,55.31
2018-07-25T22:16:25.101Z,54.25
2018-07-25T22:18:57.317Z,53.71
2018-07-25T22:21:24.645Z,52.82
2018-07-25T22:23:51.918Z,52.73
2018-07-25T22:26:19.229Z,52.63
2018-07-25T22:28:46.483Z,53.51
2018-07-25T22:31:13.688Z,53.64
2018-07-25T22:33:40.960Z,54.49
2018-07-25T22:36:08.711Z,54.79
2018-07-25T22:38:36.069Z,56.48
2018-07-25T22:41:03.361Z,56.09
2018-07-25T22:43:30.625Z,55.99
2018-07-25T22:45:57.800Z,56.27
2018-07-25T22:48:25.024Z,55.81
2018-07-25T22:50:52.331Z,55.73
2018-07-25T22:53:19.549Z,56.27
2018-07-25T22:55:46.945Z,56.19
2018-07-25T22:58:14.297Z,57.03
2018-07-25T23:00:41.573Z,56.88
2018-07-25T23:03:08.813Z,57.15
2018-07-25T23:05:36.075Z,58.17
2018-07-25T23:08:03.806Z,58.33
2018-07-25T23:10:31.008Z,57.96
2018-07-25T23:12:58.226Z,58.08
2018-07-25T23:15:25.581Z,59.33
2018-07-25T23:17:52.941Z,59.36
2018-07-25T23:20:20.211Z,58.81
2018-07-25T23:22:59.907Z,58.61
2018-07-25T23:25:27.484Z,58.89
2018-07-25T23:27:56.849Z,58.29
2018-07-25T23:30:24.701Z,58.92
2018-07-25T23:32:51.903Z,58.76
2018-07-25T23:35:19.612Z,59.41
2018-07-25T23:37:47.139Z,59.54
2018-07-25T23:40:14.487Z,59.83
2018-07-25T23:42:41.751Z,58.93
2018-07-25T23:45:08.964Z,60.03
2018-07-25T23:47:36.209Z,58.69
2018-07-25T23:50:03.507Z,58.99
2018-07-25T23:52:30.922Z,58.78
2018-07-25T23:54:58.102Z,59.03
2018-07-25T23:57:25.327Z,59.52
2018-07-25T23:59:52.546Z,60.59
